Time;durP1;ratioP1;P1;durP2;ratioP2;P2;SDS_P1;SDS_P2;PMS_P1;PMS_P2;Temp;Humidity;BMP_temperature;BMP_pressure;BME280_temperature;BME280_humidity;BME280_pressure;Samples;Min_cycle;Max_cycle;Signal;HPM_P1;HPM_P2
2021/11/13 00:00:10;;;;;;;5.10;1.80;;;19.50;63.10;;;;;;6160261;23;20582;-82
2021/11/13 00:02:36;;;;;;;3.35;1.80;;;19.50;63.50;;;;;;6184951;23;20131;-82
2021/11/13 00:05:02;;;;;;;2.75;1.52;;;19.50;63.50;;;;;;6184543;23;20185;-82
2021/11/13 00:07:28;;;;;;;3.08;1.60;;;19.50;63.60;;;;;;6185135;23;20586;-82
2021/11/13 00:09:53;;;;;;;2.60;1.60;;;19.40;63.90;;;;;;6186840;23;20135;-82
2021/11/13 00:12:19;;;;;;;2.67;1.73;;;19.50;63.90;;;;;;6189297;23;20149;-83
2021/11/13 00:14:46;;;;;;;3.45;1.77;;;19.50;63.90;;;;;;6164825;23;20190;-82
2021/11/13 00:17:16;;;;;;;3.42;1.65;;;19.50;63.90;;;;;;6165153;23;20150;-82
2021/11/13 00:19:42;;;;;;;3.63;1.73;;;19.40;63.90;;;;;;6164626;23;20581;-83
2021/11/13 00:22:08;;;;;;;4.10;1.90;;;19.50;64.00;;;;;;6189338;23;20134;-83
2021/11/13 00:24:36;;;;;;;3.03;1.95;;;19.50;64.20;;;;;;6189076;23;20266;-82
2021/11/13 00:27:05;;;;;;;6.88;1.73;;;19.40;64.10;;;;;;6189766;23;20489;-82
2021/11/13 00:29:34;;;;;;;3.58;1.80;;;19.50;64.30;;;;;;6214471;23;20182;-82
2021/11/13 00:32:01;;;;;;;3.97;1.52;;;19.40;64.10;;;;;;6215755;23;20134;-82
2021/11/13 00:34:27;;;;;;;3.33;1.75;;;19.40;65.00;;;;;;6189309;23;20207;-82
2021/11/13 00:36:54;;;;;;;2.30;1.70;;;19.50;64.30;;;;;;6164449;23;20149;-82
2021/11/13 00:39:21;;;;;;;2.83;1.60;;;19.50;64.10;;;;;;6189314;23;20142;-83
2021/11/13 00:41:47;;;;;;;2.75;1.80;;;19.40;64.30;;;;;;6189868;23;20138;-82
2021/11/13 00:44:14;;;;;;;4.70;1.92;;;19.40;64.30;;;;;;6215791;23;20138;-83
2021/11/13 00:46:41;;;;;;;3.05;1.80;;;19.40;64.30;;;;;;6189139;23;20149;-82
2021/11/13 00:49:07;;;;;;;3.92;1.60;;;19.40;64.30;;;;;;6164341;23;20178;-82
2021/11/13 00:51:33;;;;;;;3.38;1.63;;;19.40;64.30;;;;;;6189015;23;20454;-82
2021/11/13 00:53:59;;;;;;;3.00;1.67;;;19.40;64.10;;;;;;6164263;23;20216;-82
2021/11/13 00:56:26;;;;;;;3.00;1.60;;;19.40;64.10;;;;;;6164171;23;20574;-82
2021/11/13 00:58:53;;;;;;;2.88;1.83;;;19.40;63.90;;;;;;6189243;23;20154;-82
2021/11/13 01:01:18;;;;;;;3.35;2.10;;;19.50;63.90;;;;;;6189178;23;20185;-82
2021/11/13 01:03:45;;;;;;;2.45;1.80;;;19.40;63.70;;;;;;6218293;23;20433;-82
2021/11/13 01:06:11;;;;;;;2.92;1.80;;;19.40;64.00;;;;;;6192504;23;20157;-82
2021/11/13 01:08:40;;;;;;;3.90;1.92;;;19.40;64.00;;;;;;6191169;23;20469;-81
2021/11/13 01:11:06;;;;;;;4.03;1.88;;;19.40;64.10;;;;;;6191579;23;20237;-82
2021/11/13 01:13:33;;;;;;;2.88;1.60;;;19.40;63.90;;;;;;6191028;23;20566;-82
2021/11/13 01:15:59;;;;;;;2.85;1.50;;;19.40;64.00;;;;;;6190794;23;20180;-82
2021/11/13 01:18:25;;;;;;;3.20;1.63;;;19.40;64.00;;;;;;6166004;23;20225;-82
2021/11/13 01:20:51;;;;;;;2.25;1.83;;;19.40;64.10;;;;;;6191226;23;20134;-82
2021/11/13 01:23:18;;;;;;;3.45;1.42;;;19.40;64.00;;;;;;6191534;23;20561;-82
2021/11/13 01:25:44;;;;;;;2.83;1.70;;;19.40;64.20;;;;;;6191199;23;20134;-82
2021/11/13 01:28:10;;;;;;;4.15;1.73;;;19.40;64.20;;;;;;6165866;23;20546;-82
2021/11/13 01:30:36;;;;;;;3.92;1.63;;;19.40;64.00;;;;;;6190923;23;20142;-82
2021/11/13 01:33:01;;;;;;;3.92;1.67;;;19.40;64.10;;;;;;6191336;23;20134;-82
2021/11/13 01:35:28;;;;;;;5.25;1.80;;;19.40;63.90;;;;;;6190501;23;20602;-82
2021/11/13 01:37:54;;;;;;;4.13;1.63;;;19.40;64.10;;;;;;6165695;23;20146;-82
2021/11/13 01:40:21;;;;;;;2.63;1.63;;;19.40;63.90;;;;;;6217400;23;20139;-82
2021/11/13 01:42:47;;;;;;;2.20;1.50;;;19.40;64.30;;;;;;6166401;23;20146;-82
2021/11/13 01:45:13;;;;;;;2.17;1.65;;;19.40;64.10;;;;;;6192055;23;20134;-82
2021/11/13 01:47:39;;;;;;;2.78;1.73;;;19.40;64.20;;;;;;6190949;23;20145;-82
2021/11/13 01:50:10;;;;;;;2.83;1.73;;;19.30;64.00;;;;;;6166440;23;20241;-82
2021/11/13 01:52:36;;;;;;;3.53;1.77;;;19.40;63.80;;;;;;6166340;23;20157;-82
2021/11/13 01:55:02;;;;;;;2.95;1.75;;;19.40;64.00;;;;;;6190484;23;20168;-82
2021/11/13 01:57:33;;;;;;;3.78;1.73;;;19.40;64.30;;;;;;6190974;23;20127;-82
2021/11/13 01:59:59;;;;;;;4.00;1.70;;;19.40;63.90;;;;;;6190938;23;20172;-82
2021/11/13 02:02:24;;;;;;;3.42;1.70;;;19.40;64.10;;;;;;6216871;23;20154;-82
2021/11/13 02:04:50;;;;;;;4.07;1.88;;;19.40;64.00;;;;;;6190503;23;20168;-82
2021/11/13 02:07:17;;;;;;;3.20;1.85;;;19.40;63.80;;;;;;6190476;23;20138;-82
2021/11/13 02:09:42;;;;;;;1.83;1.50;;;19.40;63.80;;;;;;6190231;23;20138;-82
2021/11/13 02:12:10;;;;;;;2.28;1.70;;;19.40;63.80;;;;;;6190731;23;20570;-82
2021/11/13 02:14:38;;;;;;;2.55;1.67;;;19.40;64.10;;;;;;6190333;23;20169;-82
2021/11/13 02:17:04;;;;;;;2.00;1.67;;;19.40;64.00;;;;;;6190694;23;20199;-82
2021/11/13 02:19:30;;;;;;;2.53;1.55;;;19.40;64.00;;;;;;6191166;23;20204;-82
2021/11/13 02:21:59;;;;;;;2.67;1.63;;;19.40;64.10;;;;;;6191731;23;20134;-82
2021/11/13 02:24:25;;;;;;;3.58;1.77;;;19.40;64.00;;;;;;6190428;23;20141;-82
2021/11/13 02:26:50;;;;;;;2.45;1.60;;;19.40;64.00;;;;;;6190350;23;20153;-81
2021/11/13 02:29:16;;;;;;;5.18;1.60;;;19.30;63.80;;;;;;6190250;23;20130;-82
2021/11/13 02:31:44;;;;;;;2.75;1.67;;;19.40;63.90;;;;;;6190378;23;20217;-82
2021/11/13 02:34:11;;;;;;;4.25;1.90;;;19.40;63.90;;;;;;6190075;23;20185;-82
2021/11/13 02:36:38;;;;;;;2.67;1.75;;;19.40;63.80;;;;;;6190241;23;20154;-82
2021/11/13 02:39:05;;;;;;;3.25;1.63;;;19.40;63.80;;;;;;6216851;23;20467;-82
2021/11/13 02:41:32;;;;;;;3.42;1.60;;;19.40;64.00;;;;;;6190224;23;20130;-82
2021/11/13 02:43:58;;;;;;;3.55;2.08;;;19.40;63.80;;;;;;6217061;23;20130;-82
2021/11/13 02:46:25;;;;;;;2.67;1.70;;;19.40;63.80;;;;;;6190517;23;20140;-82
2021/11/13 02:48:51;;;;;;;2.90;1.38;;;19.30;63.80;;;;;;6190273;23;20130;-82
2021/11/13 02:51:17;;;;;;;1.88;1.70;;;19.30;63.80;;;;;;6190352;23;20184;-82
2021/11/13 02:53:43;;;;;;;2.47;1.45;;;19.40;63.90;;;;;;6165150;23;20485;-82
2021/11/13 02:56:11;;;;;;;4.13;1.60;;;19.40;63.60;;;;;;6190375;23;20177;-82
2021/11/13 02:58:37;;;;;;;1.95;1.58;;;19.40;63.80;;;;;;6190599;23;20624;-82
2021/11/13 03:01:06;;;;;;;2.60;1.75;;;19.30;63.50;;;;;;6189974;23;20130;-82
2021/11/13 03:03:32;;;;;;;1.98;1.42;;;19.40;63.80;;;;;;6189994;23;20315;-82
2021/11/13 03:05:58;;;;;;;2.38;1.70;;;19.40;63.80;;;;;;6190446;23;20146;-81
2021/11/13 03:08:28;;;;;;;3.22;1.67;;;19.40;63.60;;;;;;6216488;23;20216;-82
2021/11/13 03:10:55;;;;;;;3.58;2.08;;;19.40;63.60;;;;;;6165436;23;20193;-82
2021/11/13 03:13:22;;;;;;;2.15;1.48;;;19.30;63.40;;;;;;6189781;23;20150;-82
2021/11/13 03:15:50;;;;;;;3.30;1.88;;;19.40;63.50;;;;;;6190367;23;20162;-82
2021/11/13 03:18:17;;;;;;;3.35;1.70;;;19.40;63.60;;;;;;6189664;23;20165;-84
2021/11/13 03:20:43;;;;;;;2.92;1.55;;;19.40;63.50;;;;;;6165484;23;20176;-82
2021/11/13 03:23:09;;;;;;;3.17;1.70;;;19.30;63.30;;;;;;6190053;23;20130;-82
2021/11/13 03:25:38;;;;;;;2.72;1.85;;;19.40;63.60;;;;;;6189410;23;20169;-82
2021/11/13 03:28:07;;;;;;;2.78;1.40;;;19.40;63.40;;;;;;6189814;23;20135;-82
2021/11/13 03:30:33;;;;;;;1.98;1.60;;;19.40;63.50;;;;;;6189986;23;20137;-82
2021/11/13 03:32:58;;;;;;;4.18;1.75;;;19.40;63.20;;;;;;6164867;23;20229;-82
2021/11/13 03:35:28;;;;;;;3.10;1.70;;;19.40;63.10;;;;;;6190013;23;20486;-82
2021/11/13 03:37:57;;;;;;;2.95;1.65;;;19.40;63.20;;;;;;6166181;23;20628;-82
2021/11/13 03:40:22;;;;;;;2.15;1.55;;;19.40;63.10;;;;;;6190552;23;20158;-82
2021/11/13 03:42:52;;;;;;;3.38;1.63;;;19.30;63.30;;;;;;6189887;23;20146;-82
2021/11/13 03:45:20;;;;;;;2.10;1.58;;;19.40;63.30;;;;;;6189743;23;20150;-82
2021/11/13 03:47:46;;;;;;;3.20;1.63;;;19.40;63.10;;;;;;6189940;23;20140;-82
2021/11/13 03:50:14;;;;;;;3.20;1.50;;;19.40;63.30;;;;;;6216165;23;20142;-82
2021/11/13 03:52:40;;;;;;;2.83;1.80;;;19.40;63.20;;;;;;6189788;23;20142;-82
2021/11/13 03:55:08;;;;;;;2.65;1.70;;;19.40;63.20;;;;;;6164899;23;20180;-82
2021/11/13 03:57:33;;;;;;;2.83;1.58;;;19.40;63.30;;;;;;6214834;23;20165;-82
2021/11/13 04:00:04;;;;;;;2.15;1.60;;;19.40;63.20;;;;;;6164927;23;20618;-82
2021/11/13 04:02:30;;;;;;;3.15;1.67;;;19.30;63.00;;;;;;6190111;23;20697;-82
2021/11/13 04:04:56;;;;;;;3.17;1.45;;;19.40;63.00;;;;;;6189417;23;20210;-82
2021/11/13 04:07:21;;;;;;;3.72;1.60;;;19.40;62.90;;;;;;6164641;23;20150;-82
2021/11/13 04:09:47;;;;;;;2.08;1.70;;;19.40;63.00;;;;;;6189476;23;20135;-82
2021/11/13 04:12:14;;;;;;;2.83;1.63;;;19.40;63.00;;;;;;6165058;23;20162;-82
2021/11/13 04:14:41;;;;;;;2.88;1.73;;;19.40;63.10;;;;;;6189458;23;20185;-82
2021/11/13 04:17:08;;;;;;;2.42;1.60;;;19.40;63.10;;;;;;6189717;23;20160;-82
2021/11/13 04:19:34;;;;;;;2.25;1.80;;;19.40;62.90;;;;;;6190402;23;20562;-82
2021/11/13 04:22:01;;;;;;;2.20;1.50;;;19.40;63.00;;;;;;6189506;23;20217;-82
2021/11/13 04:24:26;;;;;;;2.70;1.60;;;19.30;62.70;;;;;;6189796;23;20150;-82
2021/11/13 04:26:54;;;;;;;2.90;1.75;;;19.40;62.60;;;;;;6190003;23;20154;-82
2021/11/13 04:29:20;;;;;;;2.25;1.42;;;19.40;62.70;;;;;;6214876;23;20644;-82
2021/11/13 04:31:46;;;;;;;3.08;1.60;;;19.40;63.00;;;;;;6189696;23;20139;-82
2021/11/13 04:34:18;;;;;;;1.98;1.27;;;19.30;62.90;;;;;;6189345;23;20154;-82
2021/11/13 04:36:46;;;;;;;2.25;1.63;;;19.40;62.90;;;;;;6191663;23;20136;-82
2021/11/13 04:39:12;;;;;;;2.10;1.50;;;19.40;62.70;;;;;;6192224;23;20201;-82
2021/11/13 04:41:38;;;;;;;2.78;1.55;;;19.40;62.60;;;;;;6167094;23;20570;-82
2021/11/13 04:44:04;;;;;;;2.60;1.40;;;19.40;62.50;;;;;;6191763;23;20126;-82
2021/11/13 04:46:30;;;;;;;3.20;1.80;;;19.40;62.60;;;;;;6191182;23;20153;-82
2021/11/13 04:48:55;;;;;;;3.15;1.92;;;19.40;62.50;;;;;;6191290;23;20135;-82
2021/11/13 04:51:22;;;;;;;2.92;1.52;;;19.40;62.30;;;;;;6166795;23;20200;-82
2021/11/13 04:53:48;;;;;;;2.70;1.80;;;19.40;62.50;;;;;;6191150;23;20200;-82
2021/11/13 04:56:14;;;;;;;4.25;1.60;;;19.40;62.70;;;;;;6194551;23;20162;-82
2021/11/13 04:58:40;;;;;;;2.90;1.60;;;19.40;62.60;;;;;;6195003;23;20592;-82
2021/11/13 05:01:07;;;;;;;2.90;1.67;;;19.40;62.40;;;;;;6195142;23;20157;-82
2021/11/13 05:03:32;;;;;;;2.08;1.58;;;19.40;62.60;;;;;;6195851;23;20126;-82
2021/11/13 05:05:58;;;;;;;2.58;1.70;;;19.30;62.40;;;;;;6170596;23;20165;-82
2021/11/13 05:08:24;;;;;;;1.92;1.52;;;19.40;62.50;;;;;;6170103;23;20146;-82
2021/11/13 05:10:50;;;;;;;4.35;1.60;;;19.40;62.50;;;;;;6195166;23;20193;-83
2021/11/13 05:13:17;;;;;;;2.13;1.70;;;19.40;62.60;;;;;;6195437;23;20146;-82
2021/11/13 05:15:43;;;;;;;3.40;1.60;;;19.40;62.50;;;;;;6195355;23;20162;-82
2021/11/13 05:18:11;;;;;;;3.13;1.70;;;19.30;62.40;;;;;;6193300;23;20131;-82
2021/11/13 05:20:40;;;;;;;2.17;1.55;;;19.40;62.50;;;;;;6191861;23;20135;-82
2021/11/13 05:23:08;;;;;;;2.70;1.60;;;19.30;62.60;;;;;;6191318;23;20142;-82
2021/11/13 05:25:34;;;;;;;2.92;1.48;;;19.40;62.30;;;;;;6191052;23;20188;-83
2021/11/13 05:27:59;;;;;;;2.65;1.77;;;19.30;62.10;;;;;;6190859;23;20145;-82
2021/11/13 05:30:26;;;;;;;3.47;1.92;;;19.40;62.20;;;;;;6166583;23;20157;-82
2021/11/13 05:32:52;;;;;;;3.53;1.85;;;19.30;62.20;;;;;;6168183;23;20558;-82
2021/11/13 05:35:18;;;;;;;2.42;1.55;;;19.30;62.30;;;;;;6191112;23;20190;-82
2021/11/13 05:37:45;;;;;;;2.78;1.60;;;19.40;62.20;;;;;;6190928;23;20181;-82
2021/11/13 05:40:11;;;;;;;2.85;1.60;;;19.30;62.00;;;;;;6190728;23;20160;-82
2021/11/13 05:42:37;;;;;;;2.70;1.75;;;19.30;61.90;;;;;;6190779;23;20224;-82
2021/11/13 05:45:04;;;;;;;3.08;1.55;;;19.30;62.00;;;;;;6190980;23;20134;-82
2021/11/13 05:47:30;;;;;;;2.78;1.90;;;19.40;62.00;;;;;;6190476;23;20138;-82
2021/11/13 05:49:56;;;;;;;4.68;1.50;;;19.40;61.90;;;;;;6190533;23;20161;-82
2021/11/13 05:52:26;;;;;;;2.92;1.52;;;19.40;62.00;;;;;;6190743;23;20470;-82
2021/11/13 05:54:53;;;;;;;2.20;1.45;;;19.40;62.20;;;;;;6190367;23;20165;-82
2021/11/13 05:57:18;;;;;;;2.58;1.65;;;19.40;62.90;;;;;;6190901;23;20489;-82
2021/11/13 05:59:44;;;;;;;3.72;1.52;;;19.40;61.90;;;;;;6190678;23;20573;-82
2021/11/13 06:02:11;;;;;;;3.30;1.55;;;19.40;61.80;;;;;;6190626;23;20157;-82
2021/11/13 06:04:36;;;;;;;2.47;1.52;;;19.40;61.80;;;;;;6165631;23;20157;-82
2021/11/13 06:07:02;;;;;;;2.90;1.55;;;19.40;61.90;;;;;;6190494;23;20150;-82
2021/11/13 06:09:29;;;;;;;3.03;1.58;;;19.30;62.00;;;;;;6165651;23;20161;-82
2021/11/13 06:11:57;;;;;;;1.90;1.60;;;19.40;62.20;;;;;;6190249;23;20284;-82
2021/11/13 06:14:23;;;;;;;1.42;1.33;;;19.40;61.70;;;;;;6190286;23;20185;-83
2021/11/13 06:16:48;;;;;;;2.00;1.52;;;19.40;61.90;;;;;;6190386;23;20661;-82
2021/11/13 06:19:14;;;;;;;2.55;1.70;;;19.40;61.70;;;;;;6190130;23;20157;-83
2021/11/13 06:21:40;;;;;;;3.05;1.60;;;19.40;61.70;;;;;;6165570;23;20154;-82
2021/11/13 06:24:08;;;;;;;2.67;1.75;;;19.40;61.70;;;;;;6190806;23;20213;-82
2021/11/13 06:26:35;;;;;;;1.75;1.30;;;19.40;61.70;;;;;;6190969;23;20127;-82
2021/11/13 06:29:01;;;;;;;2.63;1.67;;;19.40;61.70;;;;;;6190401;23;20143;-83
2021/11/13 06:31:26;;;;;;;2.63;1.75;;;19.40;61.70;;;;;;6190570;23;20216;-82
2021/11/13 06:33:52;;;;;;;3.17;1.70;;;19.40;61.70;;;;;;6215380;23;20143;-82
2021/11/13 06:36:18;;;;;;;2.13;1.55;;;19.40;61.60;;;;;;6190438;23;20557;-83
2021/11/13 06:38:43;;;;;;;2.75;1.63;;;19.40;61.70;;;;;;6190266;23;20193;-82
2021/11/13 06:41:09;;;;;;;1.65;1.50;;;19.40;61.60;;;;;;6190345;23;20157;-82
2021/11/13 06:43:34;;;;;;;2.13;1.38;;;19.40;61.60;;;;;;6190499;23;20162;-82
2021/11/13 06:46:00;;;;;;;2.03;1.50;;;19.40;61.60;;;;;;6190218;23;20196;-82
2021/11/13 06:48:28;;;;;;;1.80;1.50;;;19.40;61.60;;;;;;6190299;23;20134;-82
2021/11/13 06:50:53;;;;;;;2.88;1.63;;;19.40;61.60;;;;;;6190498;23;20138;-82
2021/11/13 06:53:20;;;;;;;3.70;1.48;;;19.40;61.60;;;;;;6189987;23;20138;-83
2021/11/13 06:55:47;;;;;;;2.15;1.58;;;19.40;61.70;;;;;;6190079;23;20494;-82
2021/11/13 06:58:14;;;;;;;2.58;1.77;;;19.40;61.70;;;;;;6165920;23;20150;-82
2021/11/13 07:00:40;;;;;;;2.15;1.58;;;19.30;61.60;;;;;;6217116;23;20145;-82
2021/11/13 07:03:05;;;;;;;2.13;1.50;;;19.40;61.50;;;;;;6190356;23;20139;-82
2021/11/13 07:05:32;;;;;;;2.40;1.40;;;19.30;61.40;;;;;;6190652;23;20138;-82
2021/11/13 07:07:58;;;;;;;2.47;1.60;;;19.40;61.40;;;;;;6166068;23;20150;-82
2021/11/13 07:10:25;;;;;;;2.20;1.45;;;19.40;61.20;;;;;;6184700;23;20190;-82
2021/11/13 07:12:51;;;;;;;3.00;1.45;;;19.40;60.40;;;;;;6184851;23;20135;-83
2021/11/13 07:15:17;;;;;;;2.65;1.50;;;19.40;60.60;;;;;;6184636;23;20170;-83
2021/11/13 07:17:43;;;;;;;2.15;1.73;;;19.40;60.20;;;;;;6184917;23;20137;-82
2021/11/13 07:20:09;;;;;;;2.40;1.50;;;19.40;59.90;;;;;;6184812;23;20209;-82
2021/11/13 07:22:36;;;;;;;1.83;1.50;;;19.50;59.60;;;;;;6159979;23;20151;-82
2021/11/13 07:25:03;;;;;;;4.15;1.40;;;19.40;59.60;;;;;;6159808;23;20158;-82
2021/11/13 07:27:30;;;;;;;1.85;1.33;;;19.50;59.50;;;;;;6186345;23;20582;-82
2021/11/13 07:29:59;;;;;;;1.90;1.45;;;19.50;60.00;;;;;;6188586;23;20183;-82
2021/11/13 07:32:25;;;;;;;3.25;1.60;;;19.50;59.90;;;;;;6191087;23;20138;-82
2021/11/13 07:34:50;;;;;;;2.22;1.65;;;19.50;59.80;;;;;;6191008;23;20182;-82
2021/11/13 07:37:16;;;;;;;2.88;1.73;;;19.50;60.30;;;;;;6163841;23;20525;-82
2021/11/13 07:39:43;;;;;;;2.30;1.48;;;19.50;60.10;;;;;;6190203;23;20207;-83
2021/11/13 07:42:09;;;;;;;3.55;1.85;;;19.50;60.30;;;;;;6191161;23;20154;-83
2021/11/13 07:44:35;;;;;;;3.20;1.50;;;19.50;60.10;;;;;;6166336;23;20146;-83
2021/11/13 07:47:01;;;;;;;2.80;1.73;;;19.50;60.50;;;;;;6189726;23;20155;-83
2021/11/13 07:49:26;;;;;;;2.28;1.65;;;19.50;59.70;;;;;;6186841;23;20528;-83
2021/11/13 07:52:02;;;;;;;2.92;1.67;;;19.50;59.80;;;;;;6188001;23;20169;-83
2021/11/13 07:54:27;;;;;;;2.75;1.45;;;19.60;59.80;;;;;;6162266;23;20265;-82
2021/11/13 07:56:53;;;;;;;2.22;1.58;;;19.70;59.70;;;;;;6186418;23;20197;-82
2021/11/13 07:59:19;;;;;;;3.85;1.67;;;19.70;59.60;;;;;;6185113;23;20186;-82
2021/11/13 08:01:46;;;;;;;1.45;1.30;;;19.70;59.80;;;;;;6186626;23;20162;-83
2021/11/13 08:04:11;;;;;;;1.75;1.40;;;19.70;59.80;;;;;;6185328;23;20127;-83
2021/11/13 08:06:37;;;;;;;2.20;1.50;;;19.70;59.60;;;;;;6185827;23;20146;-82
2021/11/13 08:09:03;;;;;;;2.33;1.60;;;19.70;59.40;;;;;;6184509;23;20258;-83
2021/11/13 08:11:29;;;;;;;2.35;1.30;;;19.70;59.30;;;;;;6158687;23;20202;-82
2021/11/13 08:13:54;;;;;;;3.60;1.52;;;19.70;59.20;;;;;;6183736;23;20131;-83
2021/11/13 08:16:20;;;;;;;2.38;1.38;;;19.70;59.10;;;;;;6184796;23;20177;-82
2021/11/13 08:18:46;;;;;;;2.55;1.55;;;19.80;59.10;;;;;;6159907;23;20582;-83
2021/11/13 08:21:12;;;;;;;4.00;1.65;;;19.80;58.90;;;;;;6186905;23;20170;-83
2021/11/13 08:23:38;;;;;;;2.13;1.35;;;19.80;58.90;;;;;;6185455;23;20142;-83
2021/11/13 08:26:03;;;;;;;1.60;1.42;;;19.80;58.90;;;;;;6159962;23;20154;-83
2021/11/13 08:28:30;;;;;;;3.35;1.33;;;19.80;59.00;;;;;;6161146;23;20151;-83
2021/11/13 08:30:56;;;;;;;1.83;1.30;;;19.80;59.00;;;;;;6185832;23;20143;-82
2021/11/13 08:33:21;;;;;;;2.83;1.60;;;19.80;59.00;;;;;;6185717;23;20617;-82
2021/11/13 08:35:48;;;;;;;2.20;1.65;;;19.80;58.90;;;;;;6186925;23;20565;-83
2021/11/13 08:38:15;;;;;;;4.68;1.60;;;19.90;58.90;;;;;;6160971;23;20605;-83
2021/11/13 08:40:41;;;;;;;2.85;1.60;;;19.90;58.60;;;;;;6185604;23;20166;-83
2021/11/13 08:43:07;;;;;;;3.55;1.88;;;19.90;58.80;;;;;;6160703;23;20487;-83
2021/11/13 08:45:32;;;;;;;2.10;1.50;;;19.90;58.90;;;;;;6187029;23;20135;-83
2021/11/13 08:47:58;;;;;;;2.25;1.20;;;19.90;59.40;;;;;;6185689;23;20135;-83
2021/11/13 08:50:26;;;;;;;1.98;1.38;;;19.90;58.60;;;;;;6187725;23;20212;-84
2021/11/13 08:52:55;;;;;;;5.07;1.45;;;19.90;58.60;;;;;;6163929;23;20662;-85
2021/11/13 08:55:21;;;;;;;6.53;1.40;;;19.90;58.70;;;;;;6190446;23;20197;-85
2021/11/13 08:57:49;;;;;;;10.73;2.05;;;19.90;58.70;;;;;;6165862;23;20147;-84
2021/11/13 09:00:18;;;;;;;8.75;1.80;;;19.90;58.80;;;;;;6168408;23;20142;-81
2021/11/13 09:02:44;;;;;;;9.13;1.80;;;20.00;58.90;;;;;;6189700;23;20143;-81
2021/11/13 09:05:10;;;;;;;7.93;1.50;;;20.00;59.10;;;;;;6188916;23;20151;-84
2021/11/13 09:07:35;;;;;;;8.55;1.60;;;20.00;58.80;;;;;;6161749;23;20195;-81
2021/11/13 09:10:05;;;;;;;18.10;2.10;;;20.00;58.90;;;;;;6161723;23;20155;-84
2021/11/13 09:12:31;;;;;;;15.77;2.08;;;20.10;59.00;;;;;;6140737;23;20661;-83
2021/11/13 09:15:03;;;;;;;9.65;1.83;;;20.00;59.30;;;;;;6165176;23;20254;-82
2021/11/13 09:17:30;;;;;;;17.77;2.20;;;20.00;59.00;;;;;;6140286;23;20159;-83
2021/11/13 09:20:25;;;;;;;13.10;1.83;;;20.10;59.10;;;;;;6140319;23;20145;-84
2021/11/13 09:22:52;;;;;;;11.10;1.80;;;20.10;59.20;;;;;;6144066;23;20158;-84
2021/11/13 09:25:18;;;;;;;7.32;1.60;;;20.00;59.30;;;;;;6140401;23;20222;-81
2021/11/13 09:27:44;;;;;;;6.25;1.88;;;20.00;59.20;;;;;;6186427;23;20648;-81
2021/11/13 09:30:15;;;;;;;9.57;1.88;;;20.00;58.90;;;;;;6136646;23;20218;-80
2021/11/13 09:32:43;;;;;;;6.50;1.70;;;20.00;58.90;;;;;;6186779;23;20237;-83
2021/11/13 09:35:10;;;;;;;9.20;1.83;;;19.90;58.80;;;;;;6162850;23;20588;-83
2021/11/13 09:37:36;;;;;;;6.80;1.58;;;20.00;58.80;;;;;;6137333;23;20150;-79
2021/11/13 09:40:02;;;;;;;11.40;1.90;;;20.00;58.90;;;;;;6188466;23;20138;-81
2021/11/13 09:42:32;;;;;;;7.80;1.90;;;20.00;59.20;;;;;;6187852;23;20169;-81
2021/11/13 09:45:00;;;;;;;5.43;1.70;;;19.90;58.60;;;;;;6187872;23;20158;-80
2021/11/13 09:47:27;;;;;;;3.95;1.60;;;20.00;59.20;;;;;;6185955;23;20137;-81
2021/11/13 09:49:57;;;;;;;8.93;1.55;;;20.00;59.20;;;;;;6189816;23;20612;-82
2021/11/13 09:52:29;;;;;;;7.20;1.70;;;20.00;59.10;;;;;;6188708;23;20225;-83
2021/11/13 09:54:54;;;;;;;8.52;2.10;;;20.00;59.20;;;;;;6186181;23;20601;-81
2021/11/13 09:57:20;;;;;;;7.40;1.88;;;20.10;59.30;;;;;;6160394;23;20154;-86
2021/11/13 09:59:56;;;;;;;13.65;1.95;;;20.00;59.20;;;;;;6190827;23;20131;-81
2021/11/13 10:02:23;;;;;;;11.65;1.90;;;20.00;58.90;;;;;;6189139;23;20123;-82
2021/11/13 10:04:49;;;;;;;9.40;2.03;;;20.10;59.30;;;;;;6189500;23;20179;-82
2021/11/13 10:07:20;;;;;;;7.30;1.67;;;20.10;59.30;;;;;;6165485;23;20154;-80
2021/11/13 10:09:59;;;;;;;7.90;2.00;;;20.10;59.40;;;;;;6167343;23;20233;-85
2021/11/13 10:12:53;;;;;;;12.45;1.77;;;20.10;59.60;;;;;;5018157;27;1586916;-86
2021/11/13 10:15:34;;;;;;;8.27;2.08;;;20.10;59.50;;;;;;5058328;28;20402;-85
2021/11/13 10:18:16;;;;;;;19.77;2.28;;;20.10;59.70;;;;;;5054814;28;20150;-85
2021/11/13 10:20:48;;;;;;;19.67;2.25;;;20.10;59.90;;;;;;5054898;28;20169;-87
2021/11/13 10:23:43;;;;;;;20.83;2.35;;;20.00;59.60;;;;;;5070987;28;20154;-87
2021/11/13 10:26:22;;;;;;;17.25;2.55;;;20.00;59.60;;;;;;5050573;28;20775;-85
2021/11/13 10:28:50;;;;;;;15.35;2.40;;;20.00;60.00;;;;;;5036389;28;20188;-85
2021/11/13 10:31:27;;;;;;;14.18;2.75;;;20.00;60.20;;;;;;5035266;28;20296;-86
2021/11/13 10:33:54;;;;;;;19.85;2.85;;;20.10;60.00;;;;;;5034776;28;20197;-81
2021/11/13 10:36:22;;;;;;;16.27;2.22;;;20.00;60.10;;;;;;5032108;28;20150;-80
2021/11/13 10:38:49;;;;;;;12.82;1.90;;;20.00;60.10;;;;;;5033855;28;20182;-80
2021/11/13 10:41:15;;;;;;;12.88;1.80;;;20.00;60.20;;;;;;5018456;28;20179;-82
2021/11/13 10:43:43;;;;;;;10.75;2.13;;;20.00;60.00;;;;;;5033510;28;20261;-82
2021/11/13 10:46:11;;;;;;;12.02;2.00;;;20.00;60.20;;;;;;5032480;28;20228;-84
2021/11/13 10:48:39;;;;;;;13.82;2.35;;;20.00;60.30;;;;;;5035156;28;20254;-82
2021/11/13 10:51:15;;;;;;;15.27;2.20;;;20.00;60.10;;;;;;5033842;28;20220;-83
2021/11/13 10:53:42;;;;;;;14.32;2.00;;;20.00;60.30;;;;;;5037191;28;20185;-82
2021/11/13 10:56:12;;;;;;;10.75;2.30;;;20.10;60.50;;;;;;5018276;28;20162;-83
2021/11/13 10:58:52;;;;;;;11.75;1.95;;;20.00;60.30;;;;;;5035320;28;20216;-87
2021/11/13 11:01:28;;;;;;;9.48;1.95;;;20.00;60.50;;;;;;4993444;28;20211;-84
2021/11/13 11:04:05;;;;;;;16.98;2.35;;;19.90;61.40;;;;;;4984991;28;20259;-86
2021/11/13 11:06:36;;;;;;;15.02;2.17;;;20.00;60.10;;;;;;5016230;28;20639;-84
2021/11/13 11:12:23;;;;;;;12.65;2.03;;;20.00;60.70;;;;;;4951800;29;20300;-85
2021/11/13 11:14:50;;;;;;;11.98;1.92;;;20.00;60.90;;;;;;4923262;29;20238;-84
2021/11/13 11:17:20;;;;;;;13.13;2.00;;;20.00;60.90;;;;;;4920328;29;20208;-85
2021/11/13 11:19:50;;;;;;;12.23;1.90;;;20.00;60.70;;;;;;4920798;29;20158;-84
2021/11/13 11:22:33;;;;;;;15.52;2.35;;;19.90;61.10;;;;;;4923898;29;20208;-85
2021/11/13 11:25:03;;;;;;;13.38;2.42;;;20.00;61.60;;;;;;4916006;29;20226;-83
2021/11/13 11:27:44;;;;;;;14.63;2.28;;;20.00;61.10;;;;;;4894658;29;20197;-88
2021/11/13 11:30:16;;;;;;;10.48;1.80;;;20.00;61.40;;;;;;4921452;29;20186;-84
2021/11/13 11:32:55;;;;;;;10.98;2.08;;;20.00;61.60;;;;;;4894352;29;20598;-84
2021/11/13 11:35:30;;;;;;;12.00;2.17;;;20.00;61.50;;;;;;4863303;29;20188;-85
2021/11/13 11:37:58;;;;;;;16.73;2.17;;;20.00;61.90;;;;;;4846908;29;20180;-81
2021/11/13 11:40:27;;;;;;;16.33;2.45;;;20.00;61.60;;;;;;4846499;29;20646;-80
2021/11/13 11:42:53;;;;;;;8.95;2.38;;;20.00;62.10;;;;;;4840627;29;20195;-81
2021/11/13 11:45:22;;;;;;;17.20;2.40;;;20.00;61.60;;;;;;4899011;29;20186;-80
2021/11/13 11:47:48;;;;;;;13.00;2.20;;;20.10;62.00;;;;;;4912718;28;20216;-80
2021/11/13 11:50:27;;;;;;;7.22;1.80;;;20.00;61.90;;;;;;4978845;28;20176;-86
2021/11/13 11:52:54;;;;;;;12.80;2.10;;;20.00;62.10;;;;;;4980675;28;20214;-81
2021/11/13 11:55:20;;;;;;;10.88;1.67;;;20.10;62.30;;;;;;4979628;28;20244;-81
2021/11/13 11:57:56;;;;;;;12.10;1.63;;;20.10;62.30;;;;;;4978692;28;20273;-82
2021/11/13 12:00:23;;;;;;;11.63;2.22;;;20.10;62.40;;;;;;4995413;28;20190;-81
2021/11/13 12:02:52;;;;;;;8.15;1.92;;;20.00;62.10;;;;;;4997992;28;20261;-80
2021/11/13 12:05:20;;;;;;;13.18;2.03;;;20.00;61.60;;;;;;5018724;28;20179;-83
2021/11/13 12:07:46;;;;;;;16.08;2.25;;;20.10;61.80;;;;;;5054206;28;20633;-81
2021/11/13 12:10:15;;;;;;;9.15;1.98;;;20.10;62.30;;;;;;5040269;28;20193;-80
2021/11/13 12:12:50;;;;;;;14.88;2.22;;;20.10;62.40;;;;;;5053767;28;20583;-82
2021/11/13 12:15:19;;;;;;;10.38;1.90;;;20.10;62.50;;;;;;5021135;28;20181;-81
2021/11/13 12:17:47;;;;;;;6.78;2.03;;;20.00;62.20;;;;;;5020558;28;20193;-82
2021/11/13 12:20:19;;;;;;;15.95;2.03;;;20.10;61.90;;;;;;5020509;28;20189;-81
2021/11/13 12:22:49;;;;;;;10.73;2.05;;;20.10;61.90;;;;;;5035904;28;20173;-82
2021/11/13 12:25:21;;;;;;;7.68;2.20;;;20.10;61.80;;;;;;5035806;28;20182;-82
2021/11/13 12:28:19;;;;;;;6.80;1.80;;;20.10;61.00;;;;;;5018608;28;20310;-82
2021/11/13 12:30:49;;;;;;;11.43;2.10;;;20.10;61.40;;;;;;5034886;28;20372;-82
2021/11/13 12:33:39;;;;;;;7.10;1.83;;;20.00;61.10;;;;;;5035281;28;20201;-82
2021/11/13 12:36:11;;;;;;;7.07;1.83;;;20.10;61.10;;;;;;5034646;28;20272;-81
2021/11/13 12:38:43;;;;;;;7.28;1.77;;;20.00;60.20;;;;;;5020351;28;20163;-82
2021/11/13 12:41:19;;;;;;;12.10;1.90;;;20.00;60.30;;;;;;5002783;28;20181;-82
2021/11/13 12:44:20;;;;;;;10.57;2.28;;;20.10;61.50;;;;;;5035247;28;20265;-82
2021/11/13 12:46:49;;;;;;;5.93;1.80;;;20.10;61.10;;;;;;5048329;28;20181;-81
2021/11/13 12:49:37;;;;;;;7.45;2.17;;;20.10;61.10;;;;;;5021966;28;20573;-82
2021/11/13 12:52:07;;;;;;;8.05;2.25;;;20.10;62.80;;;;;;5039410;28;20202;-83